Time;durP1;ratioP1;P1;durP2;ratioP2;P2;SDS_P1;SDS_P2;PMS_P1;PMS_P2;Temp;Humidity;BMP_temperature;BMP_pressure;BME280_temperature;BME280_humidity;BME280_pressure;Samples;Min_cycle;Max_cycle;Signal;HPM_P1;HPM_P2
2022/07/22 00:00:09;;;;;;;4.82;2.40;;;;;;;17.40;66.31;99450.56;4826140;29;20068;-75
2022/07/22 00:02:35;;;;;;;3.38;2.28;;;;;;;17.38;66.35;99440.09;4828287;29;20403;-77
2022/07/22 00:05:02;;;;;;;5.60;2.20;;;;;;;17.42;66.29;99440.81;4812657;29;20129;-78
2022/07/22 00:07:29;;;;;;;6.32;2.40;;;;;;;17.45;66.31;99444.16;4827339;29;20049;-78
2022/07/22 00:09:55;;;;;;;6.50;2.25;;;;;;;17.42;66.35;99448.72;4823157;29;20071;-76
2022/07/22 00:12:21;;;;;;;3.50;2.30;;;;;;;17.42;66.28;99440.81;4827394;29;20097;-79
2022/07/22 00:14:48;;;;;;;5.32;2.10;;;;;;;17.48;66.29;99447.59;4828805;29;20113;-78
2022/07/22 00:17:14;;;;;;;4.68;2.65;;;;;;;17.42;66.55;99441.66;4831645;29;20072;-79
2022/07/22 00:19:43;;;;;;;4.07;2.10;;;;;;;17.49;66.46;99444.88;4826313;29;21878;-77
2022/07/22 00:22:11;;;;;;;4.43;2.33;;;;;;;17.49;66.25;99451.94;4843046;29;20054;-77
2022/07/22 00:24:37;;;;;;;4.30;2.30;;;;;;;17.45;66.40;99444.16;4826692;29;20065;-78
2022/07/22 00:27:03;;;;;;;4.43;2.38;;;;;;;17.42;66.59;99446.94;4827699;29;20086;-77
2022/07/22 00:29:29;;;;;;;4.00;2.33;;;;;;;17.46;66.51;99448.50;4827662;29;20490;-76
2022/07/22 00:31:55;;;;;;;2.38;2.17;;;;;;;17.46;66.23;99450.28;4826814;29;20093;-75
2022/07/22 00:34:21;;;;;;;2.83;2.00;;;;;;;17.42;66.46;99446.09;4801123;29;20045;-77
2022/07/22 00:36:48;;;;;;;2.90;2.40;;;;;;;17.46;66.40;99461.66;4838226;29;20054;-77
2022/07/22 00:39:15;;;;;;;3.63;2.05;;;;;;;17.45;66.51;99462.59;4841108;29;20054;-76
2022/07/22 00:41:41;;;;;;;2.30;2.10;;;;;;;17.44;66.68;99458.25;4824371;29;20046;-76
2022/07/22 00:44:08;;;;;;;4.63;1.92;;;;;;;17.39;66.56;99462.84;4815115;29;20045;-77
2022/07/22 00:46:37;;;;;;;2.28;2.08;;;;;;;17.38;66.82;99452.38;4825728;29;20576;-77
2022/07/22 00:49:05;;;;;;;5.30;2.30;;;;;;;17.37;66.82;99448.91;4815061;29;20118;-79
2022/07/22 00:51:31;;;;;;;3.15;1.98;;;;;;;17.34;66.81;99449.03;4824981;29;20419;-79
2022/07/22 00:53:59;;;;;;;8.60;2.10;;;;;;;17.33;66.58;99462.25;4810506;29;20042;-76
2022/07/22 00:56:26;;;;;;;4.80;1.90;;;;;;;17.34;66.87;99464.78;4825538;29;20601;-77
2022/07/22 00:58:55;;;;;;;3.20;1.92;;;;;;;17.34;66.82;99462.16;4826385;29;20050;-78
2022/07/22 01:01:21;;;;;;;2.80;1.90;;;;;;;17.36;66.85;99462.13;4826502;29;20510;-78
2022/07/22 01:03:48;;;;;;;2.30;1.90;;;;;;;17.36;66.79;99467.38;4817988;29;20072;-76
2022/07/22 01:06:16;;;;;;;3.70;2.25;;;;;;;17.32;66.99;99466.66;4825572;29;20050;-79
2022/07/22 01:08:42;;;;;;;3.70;2.00;;;;;;;17.29;67.02;99464.16;4812778;29;20117;-77
2022/07/22 01:11:15;;;;;;;3.08;2.10;;;;;;;17.25;66.92;99458.16;4809129;29;20048;-76
2022/07/22 01:13:43;;;;;;;4.43;2.08;;;;;;;17.18;67.19;99448.84;4816453;29;20065;-77
2022/07/22 01:16:11;;;;;;;3.10;1.90;;;;;;;17.23;67.04;99453.88;4828308;29;20083;-76
2022/07/22 01:18:38;;;;;;;2.78;2.25;;;;;;;17.27;67.41;99466.00;4816114;29;20486;-76
2022/07/22 01:21:06;;;;;;;3.03;2.00;;;;;;;17.17;67.16;99455.84;4836183;29;20082;-78
2022/07/22 01:23:32;;;;;;;1.90;1.80;;;;;;;17.19;67.27;99465.44;4828575;29;20136;-78
2022/07/22 01:25:59;;;;;;;2.20;2.00;;;;;;;17.16;67.35;99474.31;4828289;29;20132;-79
2022/07/22 01:28:26;;;;;;;1.95;1.85;;;;;;;17.11;67.56;99473.66;4809855;29;20344;-75
2022/07/22 01:30:52;;;;;;;3.85;2.05;;;;;;;17.06;67.38;99467.72;4828731;29;20065;-77
2022/07/22 01:33:23;;;;;;;3.65;2.20;;;;;;;16.98;67.27;99484.69;4821496;29;20398;-77
2022/07/22 01:35:50;;;;;;;3.97;2.15;;;;;;;16.96;67.80;99483.00;4809694;29;20042;-78
2022/07/22 01:38:16;;;;;;;2.42;2.10;;;;;;;16.92;67.79;99478.75;4810773;29;20046;-77
2022/07/22 01:40:45;;;;;;;3.30;2.10;;;;;;;16.98;67.89;99489.06;4835240;29;20083;-80
2022/07/22 01:43:17;;;;;;;2.22;2.00;;;;;;;17.02;68.04;99491.50;4827361;29;20047;-76
2022/07/22 01:45:45;;;;;;;3.75;2.22;;;;;;;16.96;67.98;99485.63;4836240;29;20681;-77
2022/07/22 01:48:12;;;;;;;2.40;2.00;;;;;;;16.95;68.18;99476.00;4816936;29;20125;-77
2022/07/22 01:50:40;;;;;;;3.67;2.20;;;;;;;17.01;68.20;99494.19;4827783;29;20061;-79
2022/07/22 01:53:07;;;;;;;4.47;2.20;;;;;;;17.00;68.00;99481.97;4822661;29;20045;-80
2022/07/22 01:55:33;;;;;;;3.85;2.35;;;;;;;17.01;68.18;99492.41;4821478;29;20050;-77
2022/07/22 01:58:00;;;;;;;2.25;2.05;;;;;;;17.00;68.25;99492.50;4811281;29;20042;-76
2022/07/22 02:00:28;;;;;;;2.10;1.98;;;;;;;17.00;68.33;99484.59;4827807;29;20529;-77
2022/07/22 02:02:54;;;;;;;3.65;2.30;;;;;;;16.97;68.24;99492.63;4828368;29;20046;-75
2022/07/22 02:05:20;;;;;;;2.88;2.00;;;;;;;16.95;68.25;99478.63;4828229;29;20057;-77
2022/07/22 02:07:47;;;;;;;5.90;2.60;;;;;;;16.97;68.63;99487.34;4811332;29;20043;-80
2022/07/22 02:10:13;;;;;;;2.97;2.40;;;;;;;17.00;68.49;99487.25;4811163;29;20522;-75
2022/07/22 02:12:42;;;;;;;2.42;2.05;;;;;;;17.02;68.44;99485.41;4827027;29;20655;-76
2022/07/22 02:15:28;;;;;;;4.15;2.38;;;;;;;17.05;68.64;99495.78;4835329;29;20029;-77
2022/07/22 02:17:56;;;;;;;3.60;2.35;;;;;;;17.10;68.50;99501.69;4809668;29;20561;-77
2022/07/22 02:20:23;;;;;;;3.55;2.25;;;;;;;17.13;68.45;99503.38;4818593;29;20070;-76
2022/07/22 02:22:51;;;;;;;2.20;2.00;;;;;;;17.17;68.61;99500.53;4849736;29;20062;-78
2022/07/22 02:25:18;;;;;;;2.70;2.30;;;;;;;17.25;68.72;99516.00;4845978;29;20133;-78
2022/07/22 02:27:44;;;;;;;5.63;2.40;;;;;;;17.32;68.62;99516.63;4845732;29;20062;-76
2022/07/22 02:30:11;;;;;;;3.45;2.50;;;;;;;17.38;68.14;99518.13;4848315;29;20598;-77
2022/07/22 02:32:37;;;;;;;2.83;2.47;;;;;;;17.44;68.35;99523.13;4841377;29;20054;-77
2022/07/22 02:35:04;;;;;;;2.83;2.63;;;;;;;17.55;68.39;99520.03;4827204;29;20040;-77
2022/07/22 02:37:30;;;;;;;4.65;2.60;;;;;;;17.59;68.08;99521.63;4835048;29;20165;-78
2022/07/22 02:39:56;;;;;;;5.13;2.88;;;;;;;17.62;67.68;99518.88;4788932;29;20102;-79
2022/07/22 02:42:23;;;;;;;5.28;3.00;;;;;;;17.71;67.77;99529.00;4787785;29;20057;-76
2022/07/22 02:44:51;;;;;;;4.38;2.60;;;;;;;17.69;67.70;99507.16;4806017;29;20042;-78
2022/07/22 02:47:17;;;;;;;2.45;2.25;;;;;;;17.82;67.70;99532.94;4823585;29;20511;-78
2022/07/22 02:49:44;;;;;;;4.45;2.50;;;;;;;17.80;67.62;99526.88;4826858;29;20052;-77
2022/07/22 02:52:10;;;;;;;2.72;2.35;;;;;;;17.91;67.47;99532.56;4832192;29;20088;-77
2022/07/22 02:54:36;;;;;;;3.63;2.50;;;;;;;17.99;67.40;99533.09;4828746;29;20769;-77
2022/07/22 02:57:03;;;;;;;3.90;2.42;;;;;;;18.01;67.04;99541.78;4827752;29;20045;-77
2022/07/22 02:59:29;;;;;;;4.70;2.13;;;;;;;18.08;66.97;99539.75;4828669;29;20526;-78
2022/07/22 03:01:56;;;;;;;3.88;2.30;;;;;;;18.08;66.74;99534.50;4824205;29;20038;-79
2022/07/22 03:04:22;;;;;;;2.60;2.10;;;;;;;18.17;66.56;99543.75;4828762;29;20062;-77
2022/07/22 03:06:48;;;;;;;1.90;1.80;;;;;;;18.16;66.55;99544.69;4817182;29;20127;-77
2022/07/22 03:09:19;;;;;;;3.90;1.70;;;;;;;18.18;66.33;99541.03;4828286;29;20502;-75
2022/07/22 03:11:46;;;;;;;2.83;1.67;;;;;;;18.29;66.21;99556.34;4830159;29;20072;-79
2022/07/22 03:14:16;;;;;;;2.60;1.75;;;;;;;18.34;66.20;99548.25;4830655;29;20081;-77
2022/07/22 03:16:43;;;;;;;3.03;1.80;;;;;;;18.31;65.98;99546.63;4812930;29;20042;-79
2022/07/22 03:19:09;;;;;;;2.25;1.90;;;;;;;18.41;65.51;99554.13;4815224;29;20471;-76
2022/07/22 03:21:35;;;;;;;3.15;1.90;;;;;;;18.36;65.58;99552.53;4830689;29;20048;-78
2022/07/22 03:24:01;;;;;;;7.25;1.90;;;;;;;18.43;65.44;99565.41;4828160;29;21099;-75
2022/07/22 03:26:28;;;;;;;3.55;1.75;;;;;;;18.43;65.64;99563.66;4817601;29;20514;-79
2022/07/22 03:28:54;;;;;;;5.55;2.05;;;;;;;18.58;65.25;99577.03;4827326;29;20057;-78
2022/07/22 03:31:20;;;;;;;1.83;1.73;;;;;;;18.63;65.32;99575.91;4812284;29;20133;-80
2022/07/22 03:33:46;;;;;;;3.35;1.95;;;;;;;18.68;65.28;99570.44;4817745;29;20050;-82
2022/07/22 03:36:13;;;;;;;2.03;1.83;;;;;;;18.76;64.68;99575.34;4827380;29;20050;-79
2022/07/22 03:38:41;;;;;;;4.30;2.00;;;;;;;18.89;64.75;99581.72;4827658;29;20581;-79
2022/07/22 03:41:07;;;;;;;3.10;1.52;;;;;;;18.95;64.76;99583.28;4829867;29;20053;-80
2022/07/22 03:43:34;;;;;;;3.40;1.70;;;;;;;19.03;64.42;99593.47;4811077;29;20066;-77
2022/07/22 03:46:02;;;;;;;2.10;1.90;;;;;;;19.13;64.48;99584.16;4828506;29;20046;-79
2022/07/22 03:48:28;;;;;;;2.30;2.10;;;;;;;19.29;64.08;99591.38;4812997;29;20046;-77
2022/07/22 03:50:54;;;;;;;3.10;1.92;;;;;;;19.40;63.95;99579.38;4835609;29;20050;-77
2022/07/22 03:53:21;;;;;;;3.25;2.00;;;;;;;19.59;63.79;99583.72;4840479;29;20129;-76
2022/07/22 03:55:48;;;;;;;3.28;1.83;;;;;;;19.71;63.06;99591.00;4832397;29;20060;-75
2022/07/22 03:58:17;;;;;;;1.63;1.52;;;;;;;19.80;63.01;99591.50;4835167;29;20116;-79
2022/07/22 04:00:44;;;;;;;2.72;1.73;;;;;;;19.85;62.45;99589.47;4810691;29;20053;-77
2022/07/22 04:03:11;;;;;;;2.22;1.67;;;;;;;19.98;62.35;99584.44;4816258;29;20092;-78
2022/07/22 04:05:56;;;;;;;1.92;1.73;;;;;;;20.10;61.99;99590.88;4828273;29;20058;-77
2022/07/22 04:08:37;;;;;;;1.77;1.65;;;;;;;20.25;61.30;99598.00;4811733;29;20057;-76
2022/07/22 04:11:04;;;;;;;1.85;1.60;;;;;;;20.28;61.19;99589.94;4826344;29;20050;-79
2022/07/22 04:13:30;;;;;;;2.22;1.83;;;;;;;20.40;61.13;99591.06;4803970;29;20041;-79
2022/07/22 04:15:58;;;;;;;2.70;1.90;;;;;;;20.59;60.78;99588.28;4829866;29;20101;-78
2022/07/22 04:18:26;;;;;;;2.08;1.52;;;;;;;20.80;60.37;99590.72;4792049;29;20049;-79
2022/07/22 04:20:53;;;;;;;3.92;1.70;;;;;;;20.89;59.98;99597.28;4835400;29;20039;-77
2022/07/22 04:23:19;;;;;;;1.48;1.33;;;;;;;21.11;59.76;99585.53;4801074;29;20057;-76
2022/07/22 04:25:45;;;;;;;2.17;1.67;;;;;;;21.24;59.40;99589.19;4827421;29;20062;-78
2022/07/22 04:28:11;;;;;;;1.95;1.60;;;;;;;21.39;58.65;99584.84;4814717;29;20026;-78
2022/07/22 04:30:40;;;;;;;3.28;1.58;;;;;;;21.43;58.25;99572.25;4824670;29;20042;-79
2022/07/22 04:33:06;;;;;;;2.78;1.80;;;;;;;21.65;58.22;99585.13;4827985;29;20037;-77
2022/07/22 04:35:33;;;;;;;3.75;1.70;;;;;;;21.71;57.74;99578.63;4826689;29;20047;-77
2022/07/22 04:38:13;;;;;;;2.50;1.77;;;;;;;21.95;57.31;99587.78;4847778;29;20046;-78
2022/07/22 04:40:45;;;;;;;1.90;1.55;;;;;;;22.13;56.74;99592.91;4816842;29;20046;-78
2022/07/22 04:43:12;;;;;;;2.15;1.75;;;;;;;22.43;56.51;99597.28;4813742;29;20141;-78
2022/07/22 04:45:39;;;;;;;2.30;1.40;;;;;;;22.69;55.91;99600.13;4828533;29;20053;-80
2022/07/22 04:48:05;;;;;;;3.28;1.90;;;;;;;22.93;55.42;99595.09;4824398;29;20056;-80
2022/07/22 04:50:32;;;;;;;2.33;1.40;;;;;;;23.10;54.46;99598.47;4827499;29;20050;-76
2022/07/22 04:52:59;;;;;;;3.88;1.80;;;;;;;23.08;54.13;99595.06;4822186;29;20038;-76
2022/07/22 04:55:26;;;;;;;1.42;1.33;;;;;;;23.29;53.75;99606.09;4812465;29;20414;-78
2022/07/22 04:57:52;;;;;;;1.65;1.45;;;;;;;23.35;53.48;99605.69;4826919;29;20045;-79
2022/07/22 05:00:19;;;;;;;3.15;1.25;;;;;;;23.46;52.85;99605.88;4827208;29;20050;-76
2022/07/22 05:02:51;;;;;;;1.80;1.58;;;;;;;23.49;52.51;99602.13;4811929;29;20050;-75
2022/07/22 05:05:18;;;;;;;2.63;1.38;;;;;;;23.54;52.55;99615.97;4824213;29;20056;-77
2022/07/22 05:07:44;;;;;;;2.17;1.67;;;;;;;23.60;52.22;99614.72;4827427;29;20046;-78
2022/07/22 05:10:11;;;;;;;4.57;1.45;;;;;;;23.60;51.94;99615.56;4826619;29;20054;-79
2022/07/22 05:12:37;;;;;;;5.28;1.40;;;;;;;23.71;51.90;99614.84;4810328;29;20069;-77
2022/07/22 05:15:04;;;;;;;3.45;1.38;;;;;;;23.78;51.69;99617.94;4811736;29;20046;-78
2022/07/22 05:17:31;;;;;;;1.70;1.40;;;;;;;24.01;51.38;99615.56;4810823;29;20073;-79
2022/07/22 05:20:10;;;;;;;3.45;1.40;;;;;;;24.11;50.64;99613.97;4826637;29;20550;-75
2022/07/22 05:22:37;;;;;;;1.88;1.67;;;;;;;24.24;50.39;99619.31;4818082;29;20065;-76
2022/07/22 05:25:05;;;;;;;1.60;1.50;;;;;;;24.49;50.25;99618.47;4810567;29;20621;-79
2022/07/22 05:27:32;;;;;;;2.45;1.70;;;;;;;24.65;49.79;99631.50;4827965;29;20046;-77
2022/07/22 05:29:59;;;;;;;2.50;1.38;;;;;;;24.86;49.18;99628.31;4810106;29;20175;-76
2022/07/22 05:32:25;;;;;;;3.35;1.50;;;;;;;25.04;49.16;99631.47;4843223;29;20041;-77
2022/07/22 05:34:56;;;;;;;2.22;1.70;;;;;;;25.27;48.92;99611.16;4830006;29;20098;-78
2022/07/22 05:37:23;;;;;;;1.83;1.70;;;;;;;25.43;47.64;99623.38;4811162;29;20519;-79
2022/07/22 05:39:49;;;;;;;1.60;1.50;;;;;;;25.51;47.42;99622.81;4815936;29;20588;-79
2022/07/22 05:42:15;;;;;;;2.13;1.52;;;;;;;25.66;47.14;99604.84;4808135;29;20050;-75
2022/07/22 05:44:41;;;;;;;4.25;2.08;;;;;;;25.80;47.08;99609.13;4838375;29;20149;-77
2022/07/22 05:47:07;;;;;;;2.67;1.75;;;;;;;26.12;46.45;99619.16;4818450;29;20053;-79
2022/07/22 05:49:34;;;;;;;3.38;1.70;;;;;;;26.87;46.65;99622.25;4810981;29;20047;-77
2022/07/22 05:52:04;;;;;;;1.80;1.70;;;;;;;28.64;44.79;99612.94;4825324;29;20222;-78
2022/07/22 05:54:31;;;;;;;3.70;1.60;;;;;;;30.61;41.93;99606.66;4799044;29;20161;-76
2022/07/22 05:56:57;;;;;;;4.85;1.60;;;;;;;32.54;38.04;99601.03;4827878;29;20096;-79
2022/07/22 05:59:27;;;;;;;4.00;1.40;;;;;;;34.04;36.82;99608.41;4823830;29;20090;-79
2022/07/22 06:01:53;;;;;;;2.40;1.52;;;;;;;35.31;33.58;99604.03;4810224;29;20030;-76
2022/07/22 06:04:39;;;;;;;3.03;1.23;;;;;;;36.51;31.91;99607.00;4825726;29;20521;-79
2022/07/22 06:07:06;;;;;;;2.08;1.52;;;;;;;37.36;31.18;99607.41;4809895;29;20054;-80
2022/07/22 06:09:32;;;;;;;2.90;1.30;;;;;;;38.12;29.05;99608.69;4826824;29;20571;-78
2022/07/22 06:11:58;;;;;;;3.15;1.70;;;;;;;38.87;27.90;99599.91;4829252;29;20057;-81
2022/07/22 06:14:25;;;;;;;2.22;1.40;;;;;;;39.26;27.21;99608.38;4825403;29;20133;-82
2022/07/22 06:16:51;;;;;;;2.42;1.52;;;;;;;39.66;25.72;99613.03;4813815;29;20042;-77
2022/07/22 06:19:18;;;;;;;2.95;1.48;;;;;;;39.61;25.50;99603.59;4811792;29;20109;-76
2022/07/22 06:21:45;;;;;;;1.88;1.60;;;;;;;40.65;24.49;99605.78;4828015;29;20086;-80
2022/07/22 06:24:13;;;;;;;4.30;1.50;;;;;;;40.74;23.72;99613.72;4829546;29;20104;-80
2022/07/22 06:26:39;;;;;;;3.15;1.70;;;;;;;41.04;23.99;99608.50;4816995;29;20122;-79
2022/07/22 06:29:05;;;;;;;3.40;1.60;;;;;;;41.05;22.88;99618.38;4818791;29;20051;-78
2022/07/22 06:31:31;;;;;;;2.60;1.58;;;;;;;40.12;22.60;99608.63;4819692;29;20046;-79
2022/07/22 06:33:58;;;;;;;3.35;1.60;;;;;;;40.75;22.87;99610.75;4832542;29;20041;-79
2022/07/22 06:36:33;;;;;;;1.98;1.50;;;;;;;41.38;21.43;99609.16;4824975;29;20042;-81
2022/07/22 06:39:00;;;;;;;4.55;1.63;;;;;;;41.05;22.48;99620.28;4829836;29;20100;-79
2022/07/22 06:41:45;;;;;;;3.20;1.50;;;;;;;41.94;21.62;99620.25;4828854;29;20046;-79
2022/07/22 06:44:25;;;;;;;2.25;1.50;;;;;;;42.10;21.70;99615.31;4801398;29;20054;-80
2022/07/22 06:47:02;;;;;;;2.75;1.40;;;;;;;42.84;20.64;99614.47;4842129;29;20054;-78
2022/07/22 06:49:31;;;;;;;4.93;2.10;;;;;;;43.57;19.22;99614.47;4828762;29;20102;-79
2022/07/22 06:51:57;;;;;;;4.95;1.98;;;;;;;43.39;19.46;99610.75;4812742;29;20406;-78
2022/07/22 06:54:23;;;;;;;3.00;1.73;;;;;;;44.66;19.06;99617.75;4812536;29;20514;-77
2022/07/22 06:56:51;;;;;;;2.25;1.55;;;;;;;44.21;18.69;99622.03;4829195;29;20050;-79
2022/07/22 06:59:22;;;;;;;2.95;1.60;;;;;;;44.45;17.34;99620.09;4827915;29;20115;-77
2022/07/22 07:01:49;;;;;;;2.20;1.70;;;;;;;43.27;18.20;99626.31;4829599;29;20061;-80
2022/07/22 07:04:18;;;;;;;3.15;1.73;;;;;;;42.89;19.20;99618.22;4832471;29;20050;-76
2022/07/22 07:06:45;;;;;;;3.10;1.50;;;;;;;42.56;19.60;99619.44;4828936;29;20045;-78
2022/07/22 07:09:18;;;;;;;2.55;1.60;;;;;;;41.53;19.73;99621.69;4838955;29;20046;-78
2022/07/22 07:11:56;;;;;;;3.42;1.85;;;;;;;40.22;20.74;99609.03;4820932;29;20046;-78
2022/07/22 07:14:48;;;;;;;1.90;1.65;;;;;;;39.05;22.29;99612.09;4830814;29;20461;-77
2022/07/22 07:17:15;;;;;;;2.65;1.50;;;;;;;38.39;22.51;99609.72;4822964;29;20514;-77
2022/07/22 07:19:45;;;;;;;2.70;1.52;;;;;;;37.15;23.72;99628.06;4827446;29;20157;-78
2022/07/22 07:22:11;;;;;;;;;;;;;;;36.11;24.66;99632.47;4816303;29;20042;-80
2022/07/22 07:24:37;;;;;;;2.42;1.70;;;;;;;35.01;26.25;99637.13;4832663;29;19924;-79
2022/07/22 07:27:04;;;;;;;6.60;1.90;;;;;;;34.33;26.38;99626.72;4831708;29;20049;-79
2022/07/22 07:29:31;;;;;;;3.25;1.60;;;;;;;34.76;26.80;99637.22;4820198;29;20050;-78
2022/07/22 07:31:59;;;;;;;3.80;1.50;;;;;;;35.38;25.84;99630.16;4830379;29;20050;-79
2022/07/22 07:34:25;;;;;;;2.05;1.60;;;;;;;35.60;25.62;99635.78;4813486;29;20050;-80
2022/07/22 07:36:52;;;;;;;3.88;1.70;;;;;;;35.94;24.85;99630.94;4816707;29;20050;-77
2022/07/22 07:39:18;;;;;;;3.65;2.03;;;;;;;35.40;25.20;99617.31;4813491;29;20099;-77
2022/07/22 07:41:45;;;;;;;2.97;1.85;;;;;;;36.52;24.67;99617.69;4819450;29;20058;-80
2022/07/22 07:44:14;;;;;;;2.25;1.83;;;;;;;36.95;23.30;99627.00;4814114;29;20052;-78
2022/07/22 07:46:40;;;;;;;3.60;1.88;;;;;;;36.29;24.77;99621.28;4830324;29;20079;-77
2022/07/22 07:49:06;;;;;;;4.43;1.85;;;;;;;36.02;25.27;99618.19;4830744;29;20597;-79
2022/07/22 07:51:33;;;;;;;2.38;1.60;;;;;;;35.63;24.61;99627.31;4828216;29;20074;-80
2022/07/22 07:53:59;;;;;;;3.90;1.92;;;;;;;36.83;24.47;99634.72;4828121;29;20128;-77
2022/07/22 07:56:25;;;;;;;1.95;1.70;;;;;;;36.48;24.66;99627.19;4827474;29;20073;-78
2022/07/22 07:58:51;;;;;;;5.78;2.13;;;;;;;36.93;24.45;99630.69;4829102;29;20049;-78
2022/07/22 08:01:17;;;;;;;2.85;1.50;;;;;;;36.48;24.72;99633.44;4828365;29;20121;-80
2022/07/22 08:03:44;;;;;;;2.20;1.50;;;;;;;35.47;26.04;99644.50;4826006;29;20042;-79
2022/07/22 08:06:11;;;;;;;2.15;1.73;;;;;;;34.26;26.38;99633.81;4804798;29;20495;-79
2022/07/22 08:08:37;;;;;;;3.08;1.80;;;;;;;33.34;27.58;99648.25;4815323;29;20101;-77
2022/07/22 08:11:10;;;;;;;4.97;2.25;;;;;;;32.85;28.61;99649.81;4827296;29;20041;-80
2022/07/22 08:14:03;;;;;;;3.63;1.98;;;;;;;32.41;29.37;99641.84;4821444;29;20054;-79
2022/07/22 08:16:29;;;;;;;2.58;1.75;;;;;;;32.19;29.75;99645.84;4828048;29;20042;-77
2022/07/22 08:18:55;;;;;;;5.22;1.70;;;;;;;32.08;29.90;99642.44;4800061;29;20522;-80
2022/07/22 08:21:25;;;;;;;4.25;2.13;;;;;;;31.49;30.39;99644.78;4811281;29;20929;-78
2022/07/22 08:24:11;;;;;;;3.35;1.80;;;;;;;30.95;31.20;99646.34;4828268;29;20057;-78
2022/07/22 08:26:37;;;;;;;2.45;1.73;;;;;;;30.70;31.65;99652.41;4827672;29;20074;-79
2022/07/22 08:29:05;;;;;;;3.40;1.90;;;;;;;30.75;31.22;99647.44;4826384;29;20509;-80
2022/07/22 08:31:34;;;;;;;2.03;1.50;;;;;;;30.81;31.73;99657.56;4827061;29;20046;-82
2022/07/22 08:34:05;;;;;;;3.40;1.70;;;;;;;31.28;31.40;99658.47;4830340;29;20046;-79
2022/07/22 08:36:32;;;;;;;2.67;1.98;;;;;;;31.80;31.34;99647.06;4827560;29;20041;-79
2022/07/22 08:38:58;;;;;;;2.08;1.75;;;;;;;32.17;30.51;99655.94;4827537;29;20053;-78
2022/07/22 08:41:26;;;;;;;3.53;1.83;;;;;;;31.80;30.98;99657.84;4828014;29;20069;-75
2022/07/22 08:43:53;;;;;;;3.90;1.70;;;;;;;31.79;30.56;99665.06;4812163;29;20050;-81
2022/07/22 08:46:19;;;;;;;2.22;1.70;;;;;;;32.06;30.52;99662.41;4823688;29;20143;-77
2022/07/22 08:49:06;;;;;;;3.42;1.77;;;;;;;32.66;30.48;99650.88;4823792;29;20042;-77
2022/07/22 08:51:55;;;;;;;4.95;2.03;;;;;;;32.98;29.35;99648.50;4829708;29;20046;-79
2022/07/22 08:54:23;;;;;;;2.03;1.60;;;;;;;32.99;29.85;99661.81;4826357;29;20046;-78
2022/07/22 08:56:51;;;;;;;2.40;1.70;;;;;;;32.93;29.38;99632.84;5328691;23;20055;-80
2022/07/22 08:59:19;;;;;;;3.88;1.80;;;;;;;33.33;29.87;99673.53;4838915;29;20049;-80
2022/07/22 09:02:18;;;;;;;2.03;1.80;;;;;;;33.72;28.85;99661.31;4835974;29;20077;-80
2022/07/22 09:05:03;;;;;;;3.92;1.80;;;;;;;33.53;29.13;99675.97;4831373;29;20066;-79
2022/07/22 09:07:35;;;;;;;2.42;1.70;;;;;;;34.32;28.45;99667.34;4801615;29;20046;-78
2022/07/22 09:10:10;;;;;;;2.00;1.60;;;;;;;35.27;27.55;99660.31;4818027;29;20042;-78
2022/07/22 09:12:59;;;;;;;3.95;2.83;;;;;;;35.90;26.28;99668.31;4812713;29;20081;-83
2022/07/22 09:15:52;;;;;;;2.08;1.60;;;;;;;35.80;26.95;99660.44;4816857;29;20054;-79
2022/07/22 09:18:54;;;;;;;4.68;2.03;;;;;;;35.37;26.42;99666.34;4828937;29;20042;-81
2022/07/22 09:21:42;;;;;;;4.00;2.08;;;;;;;34.93;27.01;99669.59;4826415;29;20056;-82
2022/07/22 09:24:35;;;;;;;4.88;1.73;;;;;;;34.38;26.82;99662.16;4822400;29;20146;-82
2022/07/22 09:27:25;;;;;;;2.75;1.77;;;;;;;33.33;28.74;99682.47;4824874;29;20042;-80
2022/07/22 09:30:19;;;;;;;3.58;1.77;;;;;;;32.87;29.01;99681.97;4800464;29;20460;-81
2022/07/22 09:32:54;;;;;;;2.75;1.80;;;;;;;33.19;29.06;99675.03;4815444;29;20057;-84
2022/07/22 09:35:42;;;;;;;2.10;1.80;;;;;;;34.43;27.34;99680.53;4805446;29;20191;-80
2022/07/22 09:38:10;;;;;;;3.10;1.70;;;;;;;34.58;28.10;99680.69;4825735;29;20038;-80
2022/07/22 09:40:40;;;;;;;1.70;1.48;;;;;;;36.11;26.89;99672.22;4802195;29;20166;-78
2022/07/22 09:43:11;;;;;;;3.03;1.73;;;;;;;37.95;25.01;99673.31;4828496;29;20058;-79
2022/07/22 09:45:59;;;;;;;6.20;1.67;;;;;;;38.01;24.79;99677.94;4797617;29;20098;-78
2022/07/22 09:48:43;;;;;;;1.95;1.70;;;;;;;38.55;23.09;99667.47;4819087;29;20038;-79
2022/07/22 09:51:30;;;;;;;3.17;1.70;;;;;;;37.44;23.79;99669.66;4818375;29;20046;-83
2022/07/22 09:54:20;;;;;;;1.60;1.50;;;;;;;36.61;24.61;99668.00;4816424;29;20134;-81
2022/07/22 09:56:47;;;;;;;1.85;1.50;;;;;;;35.57;25.24;99677.53;4833919;29;20042;-79
2022/07/22 09:59:16;;;;;;;3.13;1.70;;;;;;;35.91;24.84;99667.28;4823521;29;20061;-78
2022/07/22 10:01:54;;;;;;;3.60;1.63;;;;;;;37.89;23.67;99677.63;4822884;29;20100;-80
2022/07/22 10:04:23;;;;;;;5.53;1.73;;;;;;;38.87;22.40;99670.59;4812453;29;20058;-78
2022/07/22 10:06:51;;;;;;;4.00;1.80;;;;;;;37.98;22.88;99683.78;4787342;29;20049;-80
2022/07/22 10:09:21;;;;;;;2.75;1.20;;;;;;;38.75;22.80;99670.28;4800697;29;20163;-79
2022/07/22 10:11:49;;;;;;;3.72;1.60;;;;;;;38.64;21.85;99666.28;4830747;29;20399;-79
2022/07/22 10:14:18;;;;;;;2.95;1.38;;;;;;;39.13;22.27;99661.69;4816340;29;20062;-79
2022/07/22 10:16:46;;;;;;;3.70;1.65;;;;;;;38.82;20.86;99670.31;4813221;29;20044;-80
2022/07/22 10:19:13;;;;;;;3.97;1.50;;;;;;;38.22;21.67;99668.06;4795286;29;20046;-78
2022/07/22 10:21:41;;;;;;;2.72;1.45;;;;;;;37.50;21.99;99676.22;4800719;29;20047;-77
2022/07/22 10:24:14;;;;;;;1.40;1.30;;;;;;;36.60;22.82;99666.31;4817052;29;20046;-80
2022/07/22 10:27:01;;;;;;;4.28;1.73;;;;;;;35.81;24.02;99677.53;4815209;29;20054;-81
2022/07/22 10:29:27;;;;;;;4.68;1.90;;;;;;;35.38;24.35;99684.25;4814994;29;20046;-83
2022/07/22 10:32:17;;;;;;;4.07;2.67;;;;;;;34.78;24.58;99681.09;4828816;29;20042;-81
2022/07/22 10:35:06;;;;;;;4.30;1.65;;;;;;;34.98;24.63;99678.88;4819849;29;20490;-80
2022/07/22 10:37:40;;;;;;;3.08;2.00;;;;;;;34.74;24.70;99678.94;4807552;29;20055;-81
2022/07/22 10:40:17;;;;;;;2.78;2.10;;;;;;;33.87;25.15;99681.22;4814543;29;20152;-83
2022/07/22 10:43:03;;;;;;;3.70;1.65;;;;;;;33.09;26.50;99690.47;4818407;29;20049;-81
2022/07/22 10:45:54;;;;;;;4.40;1.58;;;;;;;32.33;27.46;99682.97;4816773;29;20145;-82
2022/07/22 10:48:25;;;;;;;;;;;;;;;32.00;28.13;99686.25;4814057;29;20042;-79
2022/07/22 10:51:04;;;;;;;;;;;;;;;31.98;28.34;99692.78;4825923;29;20018;-82
2022/07/22 10:53:52;;;;;;;3.88;1.58;;;;;;;32.05;28.13;99691.19;4816500;29;19932;-78
2022/07/22 10:56:20;;;;;;;3.35;1.90;;;;;;;32.03;28.51;99689.63;4811906;29;20054;-82
2022/07/22 10:59:10;;;;;;;3.97;1.70;;;;;;;32.09;29.00;99686.31;4783820;29;20066;-81
2022/07/22 11:01:39;;;;;;;5.28;1.63;;;;;;;31.90;28.50;99690.03;4799541;29;20102;-77
2022/07/22 11:04:10;;;;;;;7.90;1.52;;;;;;;31.63;29.37;99687.25;4816877;29;20078;-79
2022/07/22 11:06:36;;;;;;;3.65;1.67;;;;;;;31.08;30.31;99693.50;4827963;29;20452;-77
2022/07/22 11:09:08;;;;;;;1.95;1.60;;;;;;;30.69;31.05;99683.78;4814452;29;20058;-82
2022/07/22 11:11:44;;;;;;;2.03;1.80;;;;;;;30.67;31.46;99685.78;4817190;29;20513;-81
2022/07/22 11:14:26;;;;;;;3.47;1.70;;;;;;;30.85;30.71;99676.94;4828043;29;20034;-82
2022/07/22 11:17:09;;;;;;;4.82;1.55;;;;;;;30.83;31.05;99682.44;4819305;29;20075;-78
2022/07/22 11:19:39;;;;;;;5.38;1.50;;;;;;;30.56;30.46;99670.69;4821478;29;20042;-79
2022/07/22 11:22:09;;;;;;;2.63;1.50;;;;;;;30.15;31.00;99678.09;4833611;29;20058;-80
2022/07/22 11:24:36;;;;;;;1.75;1.65;;;;;;;29.83;31.83;99676.53;4822773;29;20049;-79
2022/07/22 11:27:03;;;;;;;1.92;1.50;;;;;;;29.57;32.24;99694.00;4814280;29;20046;-81
2022/07/22 11:29:39;;;;;;;3.17;1.70;;;;;;;29.30;32.72;99689.28;4818524;29;20051;-83
2022/07/22 11:32:09;;;;;;;3.97;1.70;;;;;;;28.95;32.83;99682.56;4830249;29;20085;-79
2022/07/22 11:34:46;;;;;;;2.85;1.73;;;;;;;28.79;33.83;99700.00;4804466;29;20045;-80
2022/07/22 11:37:13;;;;;;;5.05;1.77;;;;;;;28.47;34.55;99684.03;4818963;29;20053;-79
2022/07/22 11:39:39;;;;;;;3.30;1.70;;;;;;;28.32;35.02;99678.16;4828582;29;20062;-83
2022/07/22 11:42:05;;;;;;;2.85;1.50;;;;;;;28.23;35.37;99677.13;4830259;29;20068;-78
2022/07/22 11:44:34;;;;;;;4.55;1.70;;;;;;;28.05;35.52;99680.31;4819840;29;20046;-77
2022/07/22 11:47:00;;;;;;;3.10;1.30;;;;;;;28.01;35.90;99683.38;4813177;29;20444;-78